Belgrade, MO

2:05 PM CDT on April 19, 2015 (GMT -0500)
Rolla National | | Change Station
CLOSE
Current Station
Airport
Location: Rolla,
Elevation: 1145 ft
Nearby Weather Stations

Elev 1145 ft 38.13 °N, 91.77 °W | Updated 7 minutes ago

Overcast
Overcast
63 °F
Feels Like 63 °F
N
9
Wind Variable Wind from West

Today
High -- | Low -- °F
--% Chance of Precip.
Yesterday
High -- | Low -- °F
Precip. -- in
6:23 AM 7:42 PM
New Moon, 1% visible
Pressure 29.59 in
Visibility 10.0 miles
Clouds Scattered Clouds 900 ft
Scattered Clouds 1900 ft
Dew Point 59 °F
Humidity 87%
Rainfall 0.62 in
Snow Depth Not available.
UV 8 out of 12
Pollen 3.20 out of 12
Air Quality Not available.
Flu Activity Local Activity
SPECI KVIH 191858Z AUTO 27008KT 10SM SCT009 SCT019 17/15 A2959 RMK AO2 T01720150

More Conditions Fewer Conditions

Pressure 29.59 in
Visibility 10.0 miles
Clouds Scattered Clouds 900 ft
Scattered Clouds 1900 ft
Dew Point 59 °F
Humidity 87%
Rainfall 0.62 in
Snow Depth Not available.
UV 8 out of 12
Pollen 3.20 out of 12
Air Quality Not available.
Flu Activity Local Activity
SPECI KVIH 191858Z AUTO 27008KT 10SM SCT009 SCT019 17/15 A2959 RMK AO2 T01720150

More Conditions Fewer Conditions

10-Day Weather Forecast

Almanac

Astronomy

Apr. 19, 2015 Rise Set
Actual Time
Civil Twilight
Nautical Twilight
Astronomical Twilight
Moon
Length of Visible Light
Length of Day
Tomorrow will be .
, % of the Moon is Illuminated

Today's Extremes

State Highs State Lows

Community

WunderPhotos

Upload Photos

1,814,915 photos uploaded!

WunderBlogs® & News

Nearby

Air Quality

  Air Quality AQ Index Pollutant
Not available.

Snow Depth

Station Depth Elevation

Earthquake Activity

City Distance Mag. Time & Date
Minimum magnitude displayed is 2.5.

Coastal Water Temperatures

Place Temperature

Stations

Nearby Weather Stations

Station Location Temp. Windchill Dew Point Humidity Wind Precip. Elev Updated Type